createdAt,value
2019-03-20T00:00:52.370Z,19.36
2019-03-20T00:01:52.361Z,19.39
2019-03-20T00:02:52.304Z,19.36
2019-03-20T00:03:52.346Z,19.39
2019-03-20T00:04:52.344Z,19.39
2019-03-20T00:05:52.316Z,19.39
2019-03-20T00:06:52.324Z,19.42
2019-03-20T00:07:52.338Z,19.33
2019-03-20T00:08:52.358Z,19.38
2019-03-20T00:09:52.300Z,19.36
2019-03-20T00:10:52.262Z,19.40
2019-03-20T00:11:52.265Z,19.42
2019-03-20T00:12:52.318Z,19.36
2019-03-20T00:13:52.242Z,19.39
2019-03-20T00:14:52.286Z,19.39
2019-03-20T00:15:52.209Z,19.39
2019-03-20T00:16:52.206Z,19.43
2019-03-20T00:17:52.198Z,19.39
2019-03-20T00:18:52.179Z,19.36
2019-03-20T00:19:52.174Z,19.39
2019-03-20T00:20:52.193Z,19.36
2019-03-20T00:21:52.157Z,19.42
2019-03-20T00:22:52.137Z,19.39
2019-03-20T00:23:52.151Z,19.39
2019-03-20T00:24:52.115Z,19.42
2019-03-20T00:25:52.096Z,19.38
2019-03-20T00:26:52.836Z,19.38
2019-03-20T00:27:52.024Z,19.40
2019-03-20T00:28:52.064Z,19.40
2019-03-20T00:29:52.055Z,19.40
2019-03-20T00:30:52.042Z,19.40
2019-03-20T00:31:52.036Z,19.39
2019-03-20T00:32:52.032Z,19.36
2019-03-20T00:33:52.060Z,19.39
2019-03-20T00:35:00.578Z,19.35
2019-03-20T00:35:52.986Z,19.35
2019-03-20T00:36:51.977Z,19.38
2019-03-20T00:37:52.019Z,19.33
2019-03-20T00:38:51.956Z,19.36
2019-03-20T00:39:51.984Z,19.35
2019-03-20T00:40:51.935Z,19.31
2019-03-20T00:41:51.928Z,19.36
2019-03-20T00:42:51.914Z,19.33
2019-03-20T00:43:51.934Z,19.38
2019-03-20T00:44:51.892Z,19.29
2019-03-20T00:45:51.908Z,19.32
2019-03-20T00:46:51.884Z,19.29
2019-03-20T00:47:51.905Z,19.32
2019-03-20T00:48:51.851Z,19.32
2019-03-20T00:49:51.849Z,19.31
2019-03-20T00:50:51.835Z,19.32
2019-03-20T00:51:51.826Z,19.35
2019-03-20T00:52:51.805Z,19.31
2019-03-20T00:53:51.830Z,19.31
2019-03-20T00:54:51.778Z,19.23
2019-03-20T00:55:51.754Z,19.31
2019-03-20T00:56:51.666Z,19.24
2019-03-20T00:57:51.748Z,19.28
2019-03-20T00:58:51.637Z,19.24
2019-03-20T00:59:51.737Z,19.31
2019-03-20T01:00:51.722Z,19.24
2019-03-20T01:01:51.708Z,19.23
2019-03-20T01:02:51.736Z,19.35
2019-03-20T01:03:51.590Z,19.21
2019-03-20T01:04:51.661Z,19.24
2019-03-20T01:05:51.661Z,19.23
2019-03-20T01:06:51.655Z,19.20
2019-03-20T01:07:51.634Z,19.24
2019-03-20T01:08:51.569Z,19.24
2019-03-20T01:09:51.617Z,19.21
2019-03-20T01:10:51.512Z,19.28
2019-03-20T01:11:51.597Z,19.18
2019-03-20T01:12:51.574Z,19.24
2019-03-20T01:13:51.566Z,19.23
2019-03-20T01:14:51.511Z,19.25
2019-03-20T01:15:51.548Z,19.23
2019-03-20T01:16:51.544Z,19.28
2019-03-20T01:17:51.528Z,19.23
2019-03-20T01:18:51.427Z,19.31
2019-03-20T01:19:51.545Z,19.21
2019-03-20T01:20:51.492Z,19.25
2019-03-20T01:21:51.471Z,19.18
2019-03-20T01:22:51.455Z,19.21
2019-03-20T01:23:51.439Z,19.25
2019-03-20T01:24:51.422Z,19.20
2019-03-20T01:25:51.463Z,19.24
2019-03-20T01:26:51.453Z,19.24
2019-03-20T01:27:51.404Z,19.31
2019-03-20T01:28:51.394Z,19.23
2019-03-20T01:29:51.394Z,19.23
2019-03-20T01:30:51.371Z,19.25
2019-03-20T01:31:51.426Z,19.25
2019-03-20T01:32:51.351Z,19.20
2019-03-20T01:33:51.352Z,19.21
2019-03-20T01:34:51.325Z,19.24
2019-03-20T01:35:51.313Z,19.25
2019-03-20T01:36:51.322Z,19.23
2019-03-20T01:37:51.470Z,19.20
2019-03-20T01:38:51.319Z,19.24
2019-03-20T01:39:51.183Z,19.21
2019-03-20T01:40:51.278Z,19.21
2019-03-20T01:41:51.289Z,19.17
2019-03-20T01:42:51.283Z,19.20
2019-03-20T01:43:51.241Z,19.25
2019-03-20T01:44:51.229Z,19.20
2019-03-20T01:45:51.231Z,19.20
2019-03-20T01:46:51.109Z,19.23
2019-03-20T01:47:51.198Z,19.25
2019-03-20T01:48:51.226Z,19.20
2019-03-20T01:49:51.194Z,19.25
2019-03-20T01:50:51.165Z,19.23
2019-03-20T01:51:51.160Z,19.23
2019-03-20T01:52:51.149Z,19.21
2019-03-20T01:53:51.119Z,19.20
2019-03-20T01:54:51.165Z,19.23
2019-03-20T01:55:51.092Z,19.18
2019-03-20T01:56:51.090Z,19.21
2019-03-20T01:57:51.092Z,19.24
2019-03-20T01:58:51.083Z,19.25
2019-03-20T01:59:51.125Z,19.24
2019-03-20T02:00:51.094Z,19.23
2019-03-20T02:01:51.035Z,19.18
2019-03-20T02:02:51.030Z,19.21
2019-03-20T02:03:51.027Z,19.17
2019-03-20T02:04:51.006Z,19.15
2019-03-20T02:05:51.013Z,19.24
2019-03-20T02:06:51.022Z,19.20
2019-03-20T02:07:50.975Z,19.15
2019-03-20T02:08:50.978Z,19.17
2019-03-20T02:09:50.954Z,19.21
2019-03-20T02:10:50.935Z,19.18
2019-03-20T02:11:50.941Z,19.15
2019-03-20T02:12:50.960Z,19.13
2019-03-20T02:13:50.921Z,19.18
2019-03-20T02:14:50.892Z,19.15
2019-03-20T02:15:50.796Z,19.21
2019-03-20T02:16:50.895Z,19.20
2019-03-20T02:17:50.870Z,19.18
2019-03-20T02:18:50.896Z,19.14
2019-03-20T02:19:50.899Z,19.20
2019-03-20T02:20:50.827Z,19.17
2019-03-20T02:21:50.827Z,19.17
2019-03-20T02:22:50.718Z,19.14
2019-03-20T02:23:50.799Z,19.21
2019-03-20T02:24:50.789Z,19.13
2019-03-20T02:25:50.796Z,19.15
2019-03-20T02:26:50.791Z,19.18
2019-03-20T02:27:50.783Z,19.21
2019-03-20T02:28:50.747Z,19.23
2019-03-20T02:29:50.740Z,19.11
2019-03-20T02:30:50.759Z,19.18
2019-03-20T02:31:50.712Z,19.17
2019-03-20T02:32:50.720Z,19.14
2019-03-20T02:33:50.744Z,19.10
2019-03-20T02:34:50.691Z,19.20
2019-03-20T02:35:52.351Z,19.14
2019-03-20T02:36:50.701Z,19.14
2019-03-20T02:37:50.645Z,19.15
2019-03-20T02:38:50.623Z,19.17
2019-03-20T02:39:50.631Z,19.11
2019-03-20T02:40:50.608Z,19.14
2019-03-20T02:41:50.576Z,19.17
2019-03-20T02:42:50.616Z,19.14
2019-03-20T02:43:50.564Z,19.18
2019-03-20T02:44:50.640Z,19.17
2019-03-20T02:45:50.583Z,19.17
2019-03-20T02:46:50.594Z,19.15
2019-03-20T02:47:50.539Z,19.14
2019-03-20T02:48:50.514Z,19.18
2019-03-20T02:49:50.537Z,19.20
2019-03-20T02:50:50.545Z,19.21
2019-03-20T02:51:50.394Z,19.21
2019-03-20T02:52:50.465Z,19.21
2019-03-20T02:53:50.453Z,19.20
2019-03-20T02:54:50.484Z,19.21
2019-03-20T02:55:50.455Z,19.17
2019-03-20T02:56:50.385Z,19.21
2019-03-20T02:57:50.330Z,19.23
2019-03-20T02:58:50.325Z,19.15
2019-03-20T02:59:50.300Z,19.21
2019-03-20T03:00:50.327Z,19.15
2019-03-20T03:01:50.288Z,19.18
2019-03-20T03:02:50.406Z,19.18
2019-03-20T03:03:50.354Z,19.24
2019-03-20T03:04:50.339Z,19.18
2019-03-20T03:05:50.324Z,19.23
2019-03-20T03:06:50.394Z,19.11
2019-03-20T03:07:50.301Z,19.11
2019-03-20T03:08:50.244Z,19.17
2019-03-20T03:09:50.205Z,19.21
2019-03-20T03:10:50.250Z,19.21
2019-03-20T03:11:50.255Z,19.20
2019-03-20T03:12:50.183Z,19.23
2019-03-20T03:13:50.235Z,19.18
2019-03-20T03:14:50.184Z,19.14
2019-03-20T03:15:50.145Z,19.21
2019-03-20T03:16:50.239Z,19.17
2019-03-20T03:17:50.099Z,19.20
2019-03-20T03:18:50.100Z,19.15
2019-03-20T03:19:50.165Z,19.20
2019-03-20T03:20:50.115Z,19.25
2019-03-20T03:21:50.159Z,19.20
2019-03-20T03:22:50.061Z,19.13
2019-03-20T03:23:50.091Z,19.20
2019-03-20T03:24:50.117Z,19.23
2019-03-20T03:25:50.466Z,19.23
2019-03-20T03:26:50.127Z,19.23
2019-03-20T03:27:50.037Z,19.18
2019-03-20T03:28:49.991Z,19.18
2019-03-20T03:29:50.075Z,19.23
2019-03-20T03:30:49.970Z,19.21
2019-03-20T03:31:49.983Z,19.24
2019-03-20T03:32:49.957Z,19.23
2019-03-20T03:33:49.977Z,19.28
2019-03-20T03:34:49.945Z,19.24
2019-03-20T03:35:49.904Z,19.23
2019-03-20T03:36:49.903Z,19.23
2019-03-20T03:37:49.890Z,19.21
2019-03-20T03:38:49.882Z,19.21
2019-03-20T03:39:49.907Z,19.23
2019-03-20T03:40:49.889Z,19.31
2019-03-20T03:41:49.840Z,19.21
2019-03-20T03:42:49.822Z,19.24
2019-03-20T03:43:49.824Z,19.24
2019-03-20T03:44:49.800Z,19.24
2019-03-20T03:45:49.836Z,19.20
2019-03-20T03:46:49.795Z,19.31
2019-03-20T03:47:49.839Z,19.24
2019-03-20T03:48:49.766Z,19.18
2019-03-20T03:49:49.762Z,19.23
2019-03-20T03:50:49.745Z,19.21
2019-03-20T03:51:49.770Z,19.33
2019-03-20T03:52:49.728Z,19.21
2019-03-20T03:53:49.703Z,19.24
2019-03-20T03:54:49.704Z,19.24
2019-03-20T03:55:49.692Z,19.24
2019-03-20T03:56:49.702Z,19.24
2019-03-20T03:57:49.711Z,19.24
2019-03-20T03:58:49.673Z,19.24
2019-03-20T03:59:49.644Z,19.24
2019-03-20T04:00:49.653Z,19.20
2019-03-20T04:01:49.639Z,19.25
2019-03-20T04:02:49.603Z,19.20
2019-03-20T04:03:49.651Z,19.24
2019-03-20T04:04:49.586Z,19.24
2019-03-20T04:05:49.596Z,19.20
2019-03-20T04:06:49.563Z,19.25
2019-03-20T04:07:49.565Z,19.24
2019-03-20T04:08:49.598Z,19.24
2019-03-20T04:09:49.573Z,19.23
2019-03-20T04:10:49.509Z,19.23
2019-03-20T04:11:49.502Z,19.21
2019-03-20T04:12:49.503Z,19.24
2019-03-20T04:13:49.484Z,19.31
2019-03-20T04:14:49.480Z,19.23
2019-03-20T04:15:49.510Z,19.24
2019-03-20T04:16:49.461Z,19.28
2019-03-20T04:17:49.444Z,19.31
2019-03-20T04:18:49.442Z,19.23
2019-03-20T04:19:49.427Z,19.31
2019-03-20T04:20:49.422Z,19.21
2019-03-20T04:21:49.461Z,19.31
2019-03-20T04:22:49.444Z,19.24
2019-03-20T04:23:49.386Z,19.21
2019-03-20T04:24:49.363Z,19.25
2019-03-20T04:25:49.367Z,19.28
2019-03-20T04:26:49.349Z,19.23
2019-03-20T04:27:49.366Z,19.31
2019-03-20T04:28:49.331Z,19.25
2019-03-20T04:29:49.329Z,19.28
2019-03-20T04:30:49.321Z,19.25
2019-03-20T04:31:49.314Z,19.28
2019-03-20T04:32:49.284Z,19.23
2019-03-20T04:33:49.325Z,19.23
2019-03-20T04:34:49.261Z,19.23
2019-03-20T04:35:49.342Z,19.20
2019-03-20T04:36:49.322Z,19.23
2019-03-20T04:37:49.320Z,19.24
2019-03-20T04:38:49.325Z,19.29
2019-03-20T04:39:49.262Z,19.18
2019-03-20T04:40:49.299Z,19.15
2019-03-20T04:41:49.292Z,19.24
2019-03-20T04:42:49.302Z,19.21
2019-03-20T04:43:49.255Z,19.21
2019-03-20T04:44:49.160Z,19.28
2019-03-20T04:45:49.279Z,19.21
2019-03-20T04:46:49.117Z,19.24
2019-03-20T04:47:49.227Z,19.20
2019-03-20T04:48:49.189Z,19.24
2019-03-20T04:49:49.197Z,19.24
2019-03-20T04:50:49.163Z,19.25
2019-03-20T04:51:49.182Z,19.23
2019-03-20T04:52:49.180Z,19.29
2019-03-20T04:53:49.140Z,19.20
2019-03-20T04:54:49.122Z,19.18
2019-03-20T04:55:49.111Z,19.23
2019-03-20T04:56:49.141Z,19.25
2019-03-20T04:57:49.107Z,19.20
2019-03-20T04:58:49.139Z,19.21
2019-03-20T04:59:49.099Z,19.20
2019-03-20T05:00:49.131Z,19.20
2019-03-20T05:01:49.063Z,19.24
2019-03-20T05:02:49.061Z,19.24
2019-03-20T05:03:49.046Z,19.25
2019-03-20T05:04:49.036Z,19.20
2019-03-20T05:05:49.035Z,19.24
2019-03-20T05:06:58.248Z,19.24
2019-03-20T05:07:50.060Z,19.23
2019-03-20T05:08:48.987Z,19.23
2019-03-20T05:09:49.023Z,19.23
2019-03-20T05:10:48.975Z,19.18
2019-03-20T05:11:49.077Z,19.20
2019-03-20T05:12:48.944Z,19.15
2019-03-20T05:13:48.929Z,19.21
2019-03-20T05:14:48.923Z,19.23
2019-03-20T05:15:48.838Z,19.20
2019-03-20T05:16:48.904Z,19.20
2019-03-20T05:17:48.878Z,19.15
2019-03-20T05:18:48.851Z,19.20
2019-03-20T05:19:48.777Z,19.18
2019-03-20T05:20:48.742Z,19.23
2019-03-20T05:21:48.877Z,19.25
2019-03-20T05:22:48.745Z,19.20
2019-03-20T05:23:48.803Z,19.23
2019-03-20T05:24:48.814Z,19.23
2019-03-20T05:25:48.799Z,19.20
2019-03-20T05:26:48.810Z,19.17
2019-03-20T05:27:48.816Z,19.18
2019-03-20T05:28:48.768Z,19.21
2019-03-20T05:29:48.737Z,19.21
2019-03-20T05:30:48.758Z,19.20
2019-03-20T05:31:48.730Z,19.23
2019-03-20T05:32:48.717Z,19.17
2019-03-20T05:33:48.733Z,19.20
2019-03-20T05:34:48.700Z,19.21
2019-03-20T05:35:48.699Z,19.28
2019-03-20T05:36:48.675Z,19.24
2019-03-20T05:37:48.636Z,19.24
2019-03-20T05:38:48.645Z,19.24
2019-03-20T05:39:48.662Z,19.25
2019-03-20T05:40:48.630Z,19.24
2019-03-20T05:41:48.626Z,19.20
2019-03-20T05:42:48.612Z,19.14
2019-03-20T05:43:48.603Z,19.28
2019-03-20T05:44:48.595Z,19.18
2019-03-20T05:45:48.665Z,19.24
2019-03-20T05:46:48.555Z,19.20
2019-03-20T05:47:48.540Z,19.23
2019-03-20T05:48:48.545Z,19.20
2019-03-20T05:49:48.547Z,19.25
2019-03-20T05:50:48.537Z,19.29
2019-03-20T05:51:48.456Z,19.18
2019-03-20T05:52:48.508Z,19.25
2019-03-20T05:53:48.499Z,19.31
2019-03-20T05:54:48.475Z,19.28
2019-03-20T05:55:48.468Z,19.24
2019-03-20T05:56:48.447Z,19.28
2019-03-20T05:57:48.512Z,19.24
2019-03-20T05:58:48.327Z,19.20
2019-03-20T05:59:48.431Z,19.25
2019-03-20T06:00:48.481Z,19.18
2019-03-20T06:01:48.397Z,19.21
2019-03-20T06:02:48.391Z,19.24
2019-03-20T06:03:48.423Z,19.20
2019-03-20T06:04:48.369Z,19.20
2019-03-20T06:05:48.357Z,19.23
2019-03-20T06:06:48.353Z,19.31
2019-03-20T06:07:48.312Z,19.25
2019-03-20T06:08:48.305Z,19.23
2019-03-20T06:09:48.348Z,19.24
2019-03-20T06:10:48.300Z,19.20
2019-03-20T06:11:48.271Z,19.29
2019-03-20T06:12:48.214Z,19.28
2019-03-20T06:13:48.256Z,19.29
2019-03-20T06:14:48.267Z,19.28
2019-03-20T06:15:48.355Z,19.23
2019-03-20T06:16:48.235Z,19.24
2019-03-20T06:17:48.215Z,19.20
2019-03-20T06:18:48.216Z,19.23
2019-03-20T06:19:48.202Z,19.31
2019-03-20T06:20:48.196Z,19.25
2019-03-20T06:21:48.231Z,19.32
2019-03-20T06:22:48.154Z,19.32
2019-03-20T06:23:48.177Z,19.28
2019-03-20T06:24:48.146Z,19.32
2019-03-20T06:25:48.141Z,19.36
2019-03-20T06:26:48.130Z,19.33
2019-03-20T06:27:48.039Z,19.32
2019-03-20T06:28:48.125Z,19.36
2019-03-20T06:29:48.072Z,19.33
2019-03-20T06:30:48.070Z,19.32
2019-03-20T06:31:48.054Z,19.35
2019-03-20T06:32:48.110Z,19.32
2019-03-20T06:33:48.056Z,19.39
2019-03-20T06:34:48.958Z,19.35
2019-03-20T06:35:48.008Z,19.33
2019-03-20T06:36:47.987Z,19.29
2019-03-20T06:37:48.005Z,19.35
2019-03-20T06:38:48.034Z,19.38
2019-03-20T06:39:47.982Z,19.39
2019-03-20T06:40:47.980Z,19.39
2019-03-20T06:41:47.950Z,19.39
2019-03-20T06:42:47.951Z,19.39
2019-03-20T06:43:47.942Z,19.39
2019-03-20T06:44:47.947Z,19.40
2019-03-20T06:45:47.917Z,19.42
2019-03-20T06:46:47.928Z,19.39
2019-03-20T06:47:47.882Z,19.42
2019-03-20T06:48:47.878Z,19.40
2019-03-20T06:49:47.855Z,19.36
2019-03-20T06:50:47.892Z,19.39
2019-03-20T06:51:47.850Z,19.39
2019-03-20T06:52:47.849Z,19.47
2019-03-20T06:53:47.857Z,19.42
2019-03-20T06:54:47.845Z,19.39
2019-03-20T06:55:47.814Z,19.40
2019-03-20T06:56:47.883Z,19.42
2019-03-20T06:57:47.720Z,19.40
2019-03-20T06:58:47.748Z,19.39
2019-03-20T06:59:47.811Z,19.40
2019-03-20T07:00:47.759Z,19.43
2019-03-20T07:01:47.696Z,19.48
2019-03-20T07:02:47.863Z,19.46
2019-03-20T07:03:47.766Z,19.43
2019-03-20T07:04:47.687Z,19.46
2019-03-20T07:05:47.594Z,19.48
2019-03-20T07:06:47.580Z,19.50
2019-03-20T07:07:47.626Z,19.58
2019-03-20T07:08:47.812Z,19.50
2019-03-20T07:09:48.492Z,19.57
2019-03-20T07:10:47.549Z,19.55
2019-03-20T07:11:47.634Z,19.51
2019-03-20T07:12:47.511Z,19.50
2019-03-20T07:13:47.612Z,19.55
2019-03-20T07:14:47.493Z,19.60
2019-03-20T07:15:47.627Z,19.55
2019-03-20T07:16:47.475Z,19.60
2019-03-20T07:17:47.457Z,19.54
2019-03-20T07:18:47.442Z,19.60
2019-03-20T07:19:47.529Z,19.60
2019-03-20T07:20:47.529Z,19.63
2019-03-20T07:21:48.043Z,19.60
2019-03-20T07:22:47.512Z,19.65
2019-03-20T07:23:47.489Z,19.63
2019-03-20T07:24:47.486Z,19.61
2019-03-20T07:25:47.471Z,19.61
2019-03-20T07:26:47.455Z,19.60
2019-03-20T07:27:47.502Z,19.68
2019-03-20T07:28:47.346Z,19.69
2019-03-20T07:29:47.446Z,19.66
2019-03-20T07:30:47.428Z,19.69
2019-03-20T07:31:47.315Z,19.61
2019-03-20T07:32:47.372Z,19.68
2019-03-20T07:33:47.330Z,19.68
2019-03-20T07:34:47.297Z,19.75
2019-03-20T07:35:47.258Z,19.75
2019-03-20T07:36:47.255Z,19.68
2019-03-20T07:37:55.519Z,19.73
2019-03-20T07:38:48.271Z,19.72
2019-03-20T07:39:47.221Z,19.78
2019-03-20T07:40:47.205Z,19.76
2019-03-20T07:41:47.197Z,19.72
2019-03-20T07:42:47.193Z,19.69
2019-03-20T07:43:47.183Z,19.76
2019-03-20T07:44:47.211Z,19.75
2019-03-20T07:45:47.154Z,19.78
2019-03-20T07:46:47.154Z,19.83
2019-03-20T07:47:47.139Z,19.70
2019-03-20T07:48:47.123Z,19.73
2019-03-20T07:49:47.111Z,19.83
2019-03-20T07:50:47.248Z,19.78
2019-03-20T07:51:47.085Z,19.90
2019-03-20T07:52:47.203Z,19.80
2019-03-20T07:53:47.066Z,19.87
2019-03-20T07:54:47.052Z,19.86
2019-03-20T07:55:47.177Z,19.84
2019-03-20T07:56:47.137Z,19.95
2019-03-20T07:57:47.133Z,19.88
2019-03-20T07:58:47.096Z,19.93
2019-03-20T07:59:47.090Z,19.90
2019-03-20T08:00:47.095Z,19.91
2019-03-20T08:01:47.032Z,19.93
2019-03-20T08:02:47.062Z,20.03
2019-03-20T08:03:47.043Z,20.00
2019-03-20T08:04:47.021Z,20.06
2019-03-20T08:05:47.032Z,19.98
2019-03-20T08:06:46.920Z,20.06
2019-03-20T08:07:47.078Z,20.02
2019-03-20T08:08:47.005Z,20.09
2019-03-20T08:09:46.880Z,20.10
2019-03-20T08:10:46.875Z,20.05
2019-03-20T08:11:46.874Z,20.08
2019-03-20T08:12:46.866Z,20.15
2019-03-20T08:13:46.889Z,20.24
2019-03-20T08:14:46.844Z,20.20
2019-03-20T08:15:46.829Z,20.15
2019-03-20T08:16:46.820Z,20.20
2019-03-20T08:17:46.814Z,20.24
2019-03-20T08:18:46.781Z,20.27
2019-03-20T08:19:46.837Z,20.31
2019-03-20T08:20:46.861Z,20.38
2019-03-20T08:21:46.754Z,20.34
2019-03-20T08:22:46.730Z,20.39
2019-03-20T08:23:46.724Z,20.43
2019-03-20T08:24:46.723Z,20.47
2019-03-20T08:25:46.739Z,20.46
2019-03-20T08:26:46.783Z,20.46
2019-03-20T08:27:46.693Z,20.47
2019-03-20T08:28:46.785Z,20.46
2019-03-20T08:29:46.672Z,20.50
2019-03-20T08:30:46.646Z,20.46
2019-03-20T08:31:46.693Z,20.50
2019-03-20T08:32:46.625Z,20.41
2019-03-20T08:33:46.619Z,20.41
2019-03-20T08:34:46.609Z,20.46
2019-03-20T08:35:46.592Z,20.47
2019-03-20T08:36:46.593Z,20.49
2019-03-20T08:37:46.611Z,20.49
2019-03-20T08:38:46.573Z,20.42
2019-03-20T08:39:46.563Z,20.42
2019-03-20T08:40:46.543Z,20.51
2019-03-20T08:41:46.556Z,20.43
2019-03-20T08:43:14.411Z,20.42
2019-03-20T08:43:46.652Z,20.31
2019-03-20T08:44:46.504Z,20.27
2019-03-20T08:45:46.597Z,20.43
2019-03-20T08:46:46.498Z,20.42
2019-03-20T08:47:46.589Z,20.42
2019-03-20T08:48:48.426Z,20.41
2019-03-20T08:49:46.564Z,20.38
2019-03-20T08:50:46.466Z,20.39
2019-03-20T08:51:46.426Z,20.41
2019-03-20T08:52:46.406Z,20.39
2019-03-20T08:53:46.386Z,20.42
2019-03-20T08:54:46.420Z,20.42
2019-03-20T08:55:46.385Z,20.46
2019-03-20T08:56:46.374Z,20.46
2019-03-20T08:57:46.366Z,20.46
2019-03-20T08:58:46.396Z,20.49
2019-03-20T08:59:46.331Z,20.43
2019-03-20T09:00:46.338Z,20.41
2019-03-20T09:01:46.306Z,20.49
2019-03-20T09:02:46.322Z,20.47
2019-03-20T09:03:46.292Z,20.46
2019-03-20T09:04:46.306Z,20.51
2019-03-20T09:05:46.265Z,20.51
2019-03-20T09:06:46.295Z,20.49
2019-03-20T09:07:47.561Z,20.56
2019-03-20T09:08:46.246Z,20.50
2019-03-20T09:09:46.227Z,20.50
2019-03-20T09:10:46.209Z,20.56
2019-03-20T09:11:46.198Z,20.47
2019-03-20T09:12:46.240Z,20.51
2019-03-20T09:13:46.179Z,20.53
2019-03-20T09:14:46.164Z,20.51
2019-03-20T09:15:46.151Z,20.51
2019-03-20T09:16:46.141Z,20.61
2019-03-20T09:17:46.130Z,20.50
2019-03-20T09:18:46.131Z,20.49
2019-03-20T09:19:46.106Z,20.49
2019-03-20T09:20:46.157Z,20.50
2019-03-20T09:21:46.088Z,20.59
2019-03-20T09:22:46.089Z,20.62
2019-03-20T09:23:46.110Z,20.49
2019-03-20T09:24:46.052Z,20.58
2019-03-20T09:25:46.043Z,20.58
2019-03-20T09:26:46.031Z,20.53
2019-03-20T09:27:46.043Z,20.59
2019-03-20T09:28:46.043Z,20.59
2019-03-20T09:29:46.046Z,20.59
2019-03-20T09:30:45.995Z,20.62
2019-03-20T09:31:45.972Z,20.62
2019-03-20T09:32:45.966Z,20.61
2019-03-20T09:33:46.000Z,20.50
2019-03-20T09:34:45.953Z,20.58
2019-03-20T09:35:45.991Z,20.65
2019-03-20T09:36:45.928Z,20.61
2019-03-20T09:37:51.689Z,20.62
2019-03-20T09:38:46.897Z,20.64
2019-03-20T09:39:45.885Z,20.51
2019-03-20T09:40:45.878Z,20.59
2019-03-20T09:41:45.888Z,20.53
2019-03-20T09:42:45.858Z,20.54
2019-03-20T09:43:45.882Z,20.54
2019-03-20T09:44:45.831Z,20.56
2019-03-20T09:45:45.823Z,20.50
2019-03-20T09:46:45.813Z,20.54
2019-03-20T09:47:45.801Z,20.47
2019-03-20T09:48:45.787Z,20.49
2019-03-20T09:49:45.824Z,20.50
2019-03-20T09:50:45.766Z,20.53
2019-03-20T09:51:45.757Z,20.46
2019-03-20T09:52:45.741Z,20.49
2019-03-20T09:53:45.731Z,20.51
2019-03-20T09:54:45.753Z,20.53
2019-03-20T09:55:45.746Z,20.49
2019-03-20T09:56:45.701Z,20.47
2019-03-20T09:57:45.683Z,20.46
2019-03-20T09:58:45.681Z,20.47
2019-03-20T09:59:46.073Z,20.49
2019-03-20T10:00:45.656Z,20.50
2019-03-20T10:01:45.688Z,20.53
2019-03-20T10:02:45.631Z,20.51
2019-03-20T10:03:45.626Z,20.49
2019-03-20T10:04:45.611Z,20.54
2019-03-20T10:05:45.601Z,20.49
2019-03-20T10:06:45.581Z,20.51
2019-03-20T10:07:45.626Z,20.50
2019-03-20T10:08:53.789Z,20.51
2019-03-20T10:09:46.559Z,20.56
2019-03-20T10:10:45.555Z,20.54
2019-03-20T10:11:45.551Z,20.59
2019-03-20T10:12:45.657Z,20.53
2019-03-20T10:13:45.562Z,20.51
2019-03-20T10:14:45.526Z,20.54
2019-03-20T10:15:45.496Z,20.58
2019-03-20T10:16:45.473Z,20.49
2019-03-20T10:17:46.444Z,20.61
2019-03-20T10:18:45.512Z,20.69
2019-03-20T10:19:45.466Z,20.64
2019-03-20T10:20:45.449Z,20.66
2019-03-20T10:21:45.433Z,20.65
2019-03-20T10:22:45.432Z,20.62
2019-03-20T10:23:45.422Z,20.59
2019-03-20T10:24:45.479Z,20.62
2019-03-20T10:25:45.418Z,20.59
2019-03-20T10:26:45.400Z,20.66
2019-03-20T10:27:45.345Z,20.68
2019-03-20T10:28:45.358Z,20.66
2019-03-20T10:29:45.334Z,20.76
2019-03-20T10:30:45.359Z,20.66
2019-03-20T10:31:45.373Z,20.68
2019-03-20T10:32:45.316Z,20.72
2019-03-20T10:33:45.313Z,20.76
2019-03-20T10:34:45.291Z,20.76
2019-03-20T10:35:50.349Z,20.68
2019-03-20T10:36:46.414Z,20.79
2019-03-20T10:37:45.261Z,20.87
2019-03-20T10:38:45.250Z,20.89
2019-03-20T10:39:45.237Z,20.84
2019-03-20T10:40:45.243Z,20.90
2019-03-20T10:41:45.217Z,20.95
2019-03-20T10:42:45.247Z,21.11
2019-03-20T10:43:45.221Z,21.08
2019-03-20T10:44:45.187Z,21.14
2019-03-20T10:45:45.184Z,21.24
2019-03-20T10:46:45.164Z,21.16
2019-03-20T10:47:45.153Z,21.16
2019-03-20T10:48:45.160Z,21.19
2019-03-20T10:49:45.135Z,21.19
2019-03-20T10:50:45.115Z,21.29
2019-03-20T10:51:45.124Z,21.19
2019-03-20T10:52:45.094Z,21.19
2019-03-20T10:53:45.118Z,21.26
2019-03-20T10:54:45.064Z,21.21
2019-03-20T10:55:45.060Z,21.24
2019-03-20T10:56:45.052Z,21.27
2019-03-20T10:57:45.043Z,21.24
2019-03-20T10:58:45.105Z,21.20
2019-03-20T10:59:45.164Z,21.21
2019-03-20T11:00:45.112Z,21.27
2019-03-20T11:01:45.100Z,21.27
2019-03-20T11:02:44.990Z,21.26
2019-03-20T11:03:45.095Z,21.21
2019-03-20T11:04:44.969Z,21.16
2019-03-20T11:05:45.004Z,21.32
2019-03-20T11:06:44.938Z,21.23
2019-03-20T11:07:44.924Z,21.24
2019-03-20T11:08:44.934Z,21.19
2019-03-20T11:09:44.922Z,21.24
2019-03-20T11:10:44.904Z,21.21
2019-03-20T11:11:44.919Z,21.20
2019-03-20T11:12:44.877Z,21.26
2019-03-20T11:13:44.880Z,21.21
2019-03-20T11:14:44.866Z,21.21
2019-03-20T11:15:44.853Z,21.35
2019-03-20T11:16:45.001Z,21.29
2019-03-20T11:17:44.914Z,21.34
2019-03-20T11:18:44.817Z,21.35
2019-03-20T11:19:44.831Z,21.24
2019-03-20T11:20:44.789Z,21.35
2019-03-20T11:21:44.766Z,21.27
2019-03-20T11:22:44.787Z,21.29
2019-03-20T11:23:44.782Z,21.30
2019-03-20T11:24:44.749Z,21.38
2019-03-20T11:25:44.735Z,21.39
2019-03-20T11:26:44.709Z,21.36
2019-03-20T11:27:44.710Z,21.35
2019-03-20T11:28:44.694Z,21.38
2019-03-20T11:29:44.707Z,21.34
2019-03-20T11:30:44.668Z,21.38
2019-03-20T11:31:44.691Z,21.41
2019-03-20T11:32:44.658Z,21.42
2019-03-20T11:33:44.645Z,21.44
2019-03-20T11:34:44.629Z,21.45
2019-03-20T11:35:44.665Z,21.42
2019-03-20T11:36:44.609Z,21.46
2019-03-20T11:37:44.630Z,21.45
2019-03-20T11:38:44.575Z,21.46
2019-03-20T11:39:44.570Z,21.45
2019-03-20T11:40:44.570Z,21.45
2019-03-20T11:41:44.556Z,21.46
2019-03-20T11:42:44.528Z,21.57
2019-03-20T11:43:44.561Z,21.56
2019-03-20T11:44:44.512Z,21.51
2019-03-20T11:45:44.495Z,21.59
2019-03-20T11:46:44.486Z,21.60
2019-03-20T11:47:44.475Z,21.60
2019-03-20T11:48:44.468Z,21.63
2019-03-20T11:49:44.493Z,21.72
2019-03-20T11:50:44.446Z,21.78
2019-03-20T11:51:44.435Z,21.74
2019-03-20T11:52:44.426Z,21.69
2019-03-20T11:53:44.408Z,21.71
2019-03-20T11:54:44.397Z,21.71
2019-03-20T11:55:44.415Z,21.71
2019-03-20T11:56:44.377Z,21.71
2019-03-20T11:57:44.362Z,21.72
2019-03-20T11:58:44.353Z,21.72
2019-03-20T11:59:44.345Z,21.74
2019-03-20T12:00:44.335Z,21.69
2019-03-20T12:01:44.360Z,21.75
2019-03-20T12:02:44.311Z,21.75
2019-03-20T12:03:44.298Z,21.78
2019-03-20T12:04:44.286Z,21.74
2019-03-20T12:05:44.285Z,21.69
2019-03-20T12:06:44.313Z,21.59
2019-03-20T12:07:44.257Z,21.54
2019-03-20T12:08:44.241Z,21.36
2019-03-20T12:09:44.240Z,21.14
2019-03-20T12:10:44.239Z,20.98
2019-03-20T12:11:46.039Z,20.74
2019-03-20T12:12:44.239Z,20.61
2019-03-20T12:13:44.193Z,20.49
2019-03-20T12:14:44.168Z,20.50
2019-03-20T12:15:44.255Z,20.38
2019-03-20T12:16:44.156Z,20.33
2019-03-20T12:17:44.236Z,20.33
2019-03-20T12:18:44.170Z,20.31
2019-03-20T12:19:45.120Z,20.27
2019-03-20T12:20:44.112Z,20.34
2019-03-20T12:21:44.139Z,20.31
2019-03-20T12:22:44.215Z,20.33
2019-03-20T12:23:44.186Z,20.31
2019-03-20T12:24:44.075Z,20.38
2019-03-20T12:25:44.048Z,20.43
2019-03-20T12:26:44.169Z,20.47
2019-03-20T12:27:44.179Z,20.51
2019-03-20T12:28:44.127Z,20.49
2019-03-20T12:29:44.127Z,20.58
2019-03-20T12:30:44.079Z,20.54
2019-03-20T12:31:44.004Z,20.61
2019-03-20T12:32:43.991Z,20.64
2019-03-20T12:33:43.982Z,20.76
2019-03-20T12:34:44.037Z,20.72
2019-03-20T12:35:43.939Z,20.74
2019-03-20T12:36:43.943Z,20.83
2019-03-20T12:37:43.919Z,20.83
2019-03-20T12:38:44.008Z,20.84
2019-03-20T12:39:52.821Z,20.93
2019-03-20T12:40:45.015Z,20.90
2019-03-20T12:41:44.015Z,20.96
2019-03-20T12:42:43.963Z,20.98
2019-03-20T12:43:45.459Z,21.02
2019-03-20T12:44:43.987Z,21.01
2019-03-20T12:45:43.932Z,21.11
2019-03-20T12:46:43.912Z,21.02
2019-03-20T12:47:43.916Z,21.08
2019-03-20T12:48:43.899Z,21.08
2019-03-20T12:49:43.915Z,21.17
2019-03-20T12:50:43.855Z,21.19
2019-03-20T12:51:43.855Z,21.11
2019-03-20T12:52:43.834Z,21.13